Time;durP1;ratioP1;P1;durP2;ratioP2;P2;SDS_P1;SDS_P2;PMS_P1;PMS_P2;Temp;Humidity;BMP_temperature;BMP_pressure;BME280_temperature;BME280_humidity;BME280_pressure;Samples;Min_cycle;Max_cycle;Signal;HPM_P1;HPM_P2
2023/09/16 00:01:15;;;;;;;12.82;9.10;;;14.10;99.90;;;;;;5075494;28;20469;-69
2023/09/16 00:03:41;;;;;;;14.15;8.80;;;14.10;99.90;;;;;;5074001;28;20078;-69
2023/09/16 00:06:06;;;;;;;14.00;8.43;;;14.10;99.90;;;;;;5075357;28;20040;-70
2023/09/16 00:08:33;;;;;;;12.38;7.80;;;14.20;99.90;;;;;;5074684;28;20027;-70
2023/09/16 00:11:00;;;;;;;13.32;9.52;;;14.20;99.90;;;;;;5075252;28;20107;-70
2023/09/16 00:13:26;;;;;;;14.57;9.32;;;14.20;99.90;;;;;;5074961;28;20119;-70
2023/09/16 00:15:51;;;;;;;14.57;9.27;;;14.20;99.90;;;;;;5074308;28;20106;-70
2023/09/16 00:18:18;;;;;;;12.70;8.93;;;14.30;99.90;;;;;;5074165;28;20386;-77
2023/09/16 00:20:48;;;;;;;11.68;8.13;;;14.30;99.90;;;;;;5074773;28;20060;-69
2023/09/16 00:23:14;;;;;;;12.43;8.15;;;14.20;99.90;;;;;;5073934;28;20051;-70
2023/09/16 00:25:39;;;;;;;11.20;8.73;;;14.20;99.90;;;;;;5074443;28;20021;-70
2023/09/16 00:28:06;;;;;;;12.27;8.93;;;14.20;99.90;;;;;;5074551;28;20025;-69
2023/09/16 00:30:33;;;;;;;10.95;8.00;;;14.20;99.90;;;;;;5074559;28;20371;-70
2023/09/16 00:32:58;;;;;;;9.52;7.50;;;14.20;99.90;;;;;;5074592;28;20032;-69
2023/09/16 00:35:24;;;;;;;12.70;8.63;;;14.20;99.90;;;;;;5073915;28;20036;-69
2023/09/16 00:37:49;;;;;;;12.27;8.50;;;14.10;99.90;;;;;;5074269;28;20058;-69
2023/09/16 00:40:15;;;;;;;10.85;8.63;;;14.00;99.90;;;;;;5073792;28;20070;-69
2023/09/16 00:42:40;;;;;;;10.80;7.88;;;14.00;99.90;;;;;;5073968;28;20181;-70
2023/09/16 00:45:10;;;;;;;10.50;7.75;;;14.00;99.90;;;;;;5074385;28;20027;-70
2023/09/16 00:47:36;;;;;;;11.38;8.43;;;13.90;99.90;;;;;;5074273;28;20031;-69
2023/09/16 00:50:07;;;;;;;11.40;8.70;;;13.90;99.90;;;;;;5074554;28;20032;-69
2023/09/16 00:52:34;;;;;;;11.18;8.23;;;13.90;99.90;;;;;;5073364;28;20024;-69
2023/09/16 00:55:00;;;;;;;13.50;8.77;;;13.90;99.90;;;;;;5074035;28;20028;-70
2023/09/16 00:57:27;;;;;;;15.48;9.70;;;14.00;99.90;;;;;;5074254;28;20024;-69
2023/09/16 00:59:53;;;;;;;12.82;9.00;;;14.10;99.90;;;;;;5073536;28;20059;-69
2023/09/16 01:02:19;;;;;;;10.90;7.93;;;14.20;99.90;;;;;;5073125;28;20071;-69
2023/09/16 01:04:45;;;;;;;12.93;7.63;;;14.20;99.90;;;;;;5073357;28;20021;-70
2023/09/16 01:07:11;;;;;;;11.95;8.27;;;14.20;99.90;;;;;;5073960;28;20040;-70
2023/09/16 01:09:39;;;;;;;14.18;9.55;;;14.30;99.90;;;;;;5073609;28;20086;-74
2023/09/16 01:12:05;;;;;;;12.75;9.10;;;14.30;99.90;;;;;;5073306;28;20491;-69
2023/09/16 01:14:31;;;;;;;11.18;8.57;;;14.40;99.90;;;;;;5073985;28;20040;-70
2023/09/16 01:17:02;;;;;;;9.93;7.75;;;14.40;99.90;;;;;;5073415;28;20382;-70
2023/09/16 01:19:40;;;;;;;10.55;8.55;;;14.50;99.90;;;;;;5073596;28;20466;-69
2023/09/16 01:22:07;;;;;;;11.55;9.40;;;14.50;99.90;;;;;;5073830;28;20039;-69
2023/09/16 01:24:34;;;;;;;11.88;8.20;;;14.60;99.90;;;;;;5074190;28;20044;-69
2023/09/16 01:27:00;;;;;;;11.23;9.25;;;14.60;99.90;;;;;;5073810;28;20029;-69
2023/09/16 01:29:26;;;;;;;13.18;9.45;;;14.70;99.90;;;;;;5073489;28;20032;-70
2023/09/16 01:31:54;;;;;;;11.20;9.43;;;14.70;99.90;;;;;;5073863;28;20385;-69
2023/09/16 01:34:29;;;;;;;14.48;8.85;;;14.70;99.90;;;;;;5073980;28;20048;-70
2023/09/16 01:36:58;;;;;;;14.23;9.05;;;14.70;99.90;;;;;;5073400;28;20021;-69
2023/09/16 01:39:25;;;;;;;12.98;9.63;;;14.70;99.90;;;;;;5073819;28;20024;-70
2023/09/16 01:41:54;;;;;;;14.30;9.45;;;14.70;99.90;;;;;;5073978;28;20031;-70
2023/09/16 01:44:19;;;;;;;16.88;10.30;;;14.80;99.90;;;;;;5073501;28;20021;-71
2023/09/16 01:46:45;;;;;;;12.50;9.85;;;14.90;99.90;;;;;;5073997;28;20029;-69
2023/09/16 01:49:10;;;;;;;12.65;8.98;;;14.90;99.90;;;;;;5073561;28;20021;-70
2023/09/16 01:51:36;;;;;;;13.38;10.05;;;14.90;99.90;;;;;;5073582;28;20485;-70
2023/09/16 01:54:01;;;;;;;17.23;9.75;;;15.00;99.90;;;;;;5073238;28;20029;-69
2023/09/16 01:56:27;;;;;;;11.43;8.80;;;15.00;99.90;;;;;;5073310;28;20040;-70
2023/09/16 01:58:52;;;;;;;14.15;8.77;;;15.00;99.90;;;;;;5073801;28;20098;-70
2023/09/16 02:01:18;;;;;;;13.75;9.38;;;15.10;99.90;;;;;;5073761;28;20409;-70
2023/09/16 02:03:44;;;;;;;12.85;9.00;;;15.10;99.90;;;;;;5073274;28;20028;-70
2023/09/16 02:06:09;;;;;;;10.93;9.00;;;15.10;99.90;;;;;;5073782;28;20054;-70
2023/09/16 02:08:35;;;;;;;13.77;9.23;;;15.10;99.90;;;;;;5073697;28;20087;-70
2023/09/16 02:11:01;;;;;;;18.50;9.40;;;15.10;99.90;;;;;;5073671;28;20024;-70
2023/09/16 02:13:26;;;;;;;14.32;9.98;;;15.10;99.90;;;;;;5073082;28;20470;-70
2023/09/16 02:15:52;;;;;;;14.63;9.25;;;15.10;99.90;;;;;;5072541;28;20040;-70
2023/09/16 02:18:18;;;;;;;14.57;8.75;;;15.10;99.90;;;;;;5073382;28;20028;-70
2023/09/16 02:20:43;;;;;;;12.20;9.85;;;15.10;99.90;;;;;;5073330;28;20073;-70
2023/09/16 02:23:09;;;;;;;11.82;8.93;;;15.10;99.90;;;;;;5072552;28;20048;-70
2023/09/16 02:25:35;;;;;;;11.82;8.15;;;15.10;99.90;;;;;;5073685;28;20033;-70
2023/09/16 02:28:01;;;;;;;12.80;8.43;;;15.10;99.90;;;;;;5076521;28;20511;-70
2023/09/16 02:30:27;;;;;;;15.73;9.30;;;15.20;99.90;;;;;;5076766;28;20031;-70
2023/09/16 02:32:52;;;;;;;14.80;9.90;;;15.10;99.90;;;;;;5077143;28;20028;-70
2023/09/16 02:35:18;;;;;;;11.07;8.95;;;15.10;99.90;;;;;;5077198;28;20032;-70
2023/09/16 02:37:43;;;;;;;10.63;8.65;;;15.20;99.90;;;;;;5076786;28;20064;-70
2023/09/16 02:40:09;;;;;;;10.02;8.68;;;15.20;99.90;;;;;;5076336;28;20039;-70
2023/09/16 02:42:35;;;;;;;12.93;9.95;;;15.20;99.90;;;;;;5076262;28;20029;-69
2023/09/16 02:45:01;;;;;;;14.13;9.07;;;15.20;99.90;;;;;;5076897;28;20496;-70
2023/09/16 02:47:26;;;;;;;11.88;9.82;;;15.30;99.90;;;;;;5076927;28;20035;-70
2023/09/16 02:49:52;;;;;;;10.25;8.63;;;15.20;99.90;;;;;;5076219;28;20020;-70
2023/09/16 02:52:18;;;;;;;12.20;8.70;;;15.20;99.90;;;;;;5076430;28;20020;-70
2023/09/16 02:54:44;;;;;;;14.63;10.10;;;15.30;99.90;;;;;;5076837;28;20494;-70
2023/09/16 02:57:09;;;;;;;12.35;9.38;;;15.30;99.90;;;;;;5076241;28;20028;-70
2023/09/16 02:59:35;;;;;;;12.55;9.45;;;15.30;99.90;;;;;;5076196;28;20064;-69
2023/09/16 03:02:00;;;;;;;15.02;10.48;;;15.30;99.90;;;;;;5075418;28;20023;-70
2023/09/16 03:04:26;;;;;;;17.83;9.95;;;15.30;99.90;;;;;;5076277;28;20037;-69
2023/09/16 03:06:52;;;;;;;16.88;10.68;;;15.30;99.90;;;;;;5076566;28;20036;-70
2023/09/16 03:09:19;;;;;;;13.98;9.35;;;15.30;99.90;;;;;;5076578;28;20028;-70
2023/09/16 03:11:45;;;;;;;13.98;9.15;;;15.40;99.90;;;;;;5076188;28;20025;-71
2023/09/16 03:14:10;;;;;;;12.25;9.43;;;15.40;99.90;;;;;;5075183;28;20119;-69
2023/09/16 03:16:37;;;;;;;17.98;10.20;;;15.40;99.90;;;;;;5076484;28;20062;-70
2023/09/16 03:19:03;;;;;;;12.55;10.20;;;15.40;99.90;;;;;;5076042;28;20024;-70
2023/09/16 03:21:29;;;;;;;14.60;9.85;;;15.40;99.90;;;;;;5076268;28;20036;-70
2023/09/16 03:23:54;;;;;;;17.65;10.13;;;15.40;99.90;;;;;;5075038;28;20048;-69
2023/09/16 03:26:20;;;;;;;15.73;9.63;;;15.30;99.90;;;;;;5075832;28;20012;-70
2023/09/16 03:28:46;;;;;;;12.77;9.73;;;15.30;99.90;;;;;;5076082;28;20032;-70
2023/09/16 03:31:12;;;;;;;13.35;9.48;;;15.30;99.90;;;;;;5075885;28;20044;-70
2023/09/16 03:33:37;;;;;;;12.20;9.35;;;15.30;99.90;;;;;;5076168;28;20025;-76
2023/09/16 03:36:05;;;;;;;10.13;8.80;;;15.20;99.90;;;;;;5075630;28;20374;-70
2023/09/16 03:38:32;;;;;;;13.73;9.60;;;15.20;99.90;;;;;;5075210;28;20549;-70
2023/09/16 03:40:58;;;;;;;11.23;8.63;;;15.20;99.90;;;;;;5075235;28;20024;-70
2023/09/16 03:43:24;;;;;;;12.48;9.10;;;15.20;99.90;;;;;;5075482;28;20470;-70
2023/09/16 03:45:50;;;;;;;12.30;8.70;;;15.20;99.90;;;;;;5074838;28;20025;-70
2023/09/16 03:48:15;;;;;;;12.68;8.27;;;15.10;99.90;;;;;;5075806;28;20385;-70
2023/09/16 03:50:41;;;;;;;14.73;8.35;;;15.10;99.90;;;;;;5075092;28;20035;-70
2023/09/16 03:53:07;;;;;;;11.63;9.20;;;15.10;99.90;;;;;;5075664;28;20024;-71
2023/09/16 03:55:33;;;;;;;11.95;7.90;;;15.20;99.90;;;;;;5074756;28;20029;-70
2023/09/16 03:58:00;;;;;;;9.98;8.73;;;15.10;99.90;;;;;;5074702;28;20086;-69
2023/09/16 04:00:26;;;;;;;12.10;8.95;;;15.10;99.90;;;;;;5075297;28;20036;-70
2023/09/16 04:02:52;;;;;;;10.18;8.32;;;15.10;99.90;;;;;;5075348;28;20040;-70
2023/09/16 04:05:17;;;;;;;10.70;8.55;;;15.10;99.90;;;;;;5075214;28;20035;-69
2023/09/16 04:07:43;;;;;;;10.85;8.93;;;15.00;99.90;;;;;;5074736;28;20028;-69
2023/09/16 04:10:08;;;;;;;11.88;9.65;;;15.00;99.90;;;;;;5075353;28;20051;-70
2023/09/16 04:12:34;;;;;;;12.65;9.88;;;15.00;99.90;;;;;;5075326;28;20025;-69
2023/09/16 04:15:00;;;;;;;12.63;9.13;;;14.90;99.90;;;;;;5074614;28;20028;-69
2023/09/16 04:17:27;;;;;;;12.20;9.60;;;14.90;99.90;;;;;;5074859;28;20470;-70
2023/09/16 04:19:52;;;;;;;15.45;10.50;;;14.90;99.90;;;;;;5075151;28;20358;-70
2023/09/16 04:22:19;;;;;;;13.23;11.00;;;14.80;99.90;;;;;;5074422;28;20127;-69
2023/09/16 04:24:45;;;;;;;13.30;10.07;;;14.80;99.90;;;;;;5074760;28;20433;-70
2023/09/16 04:27:10;;;;;;;11.77;10.07;;;14.80;99.90;;;;;;5074678;28;20020;-69
2023/09/16 04:29:36;;;;;;;14.98;9.73;;;14.80;99.90;;;;;;5074705;28;20098;-69
2023/09/16 04:32:02;;;;;;;11.18;9.23;;;14.70;99.90;;;;;;5074387;28;20028;-70
2023/09/16 04:34:27;;;;;;;12.05;9.05;;;14.70;99.90;;;;;;5074453;28;20040;-69
2023/09/16 04:36:55;;;;;;;11.57;9.25;;;14.70;99.90;;;;;;5074449;28;20074;-69
2023/09/16 04:39:23;;;;;;;13.32;10.25;;;14.60;99.90;;;;;;5074675;28;20074;-69
2023/09/16 04:41:53;;;;;;;10.70;9.30;;;14.60;99.90;;;;;;5074338;28;20508;-70
2023/09/16 04:44:20;;;;;;;14.25;9.30;;;14.50;99.90;;;;;;5073442;28;20020;-70
2023/09/16 04:46:46;;;;;;;11.27;9.30;;;14.40;99.90;;;;;;5074324;28;20021;-70
2023/09/16 04:49:12;;;;;;;9.65;8.57;;;14.30;99.90;;;;;;5074097;28;20025;-69
2023/09/16 04:51:38;;;;;;;10.02;8.45;;;14.30;99.90;;;;;;5074534;28;20035;-69
2023/09/16 04:54:05;;;;;;;14.27;10.30;;;14.30;99.90;;;;;;5073309;28;20027;-69
2023/09/16 04:56:30;;;;;;;10.50;9.43;;;14.20;99.90;;;;;;5073899;28;20050;-69
2023/09/16 04:58:56;;;;;;;15.23;10.65;;;14.10;99.90;;;;;;5074105;28;20539;-69
2023/09/16 05:01:21;;;;;;;13.88;10.63;;;14.10;99.90;;;;;;5074198;28;20063;-69
2023/09/16 05:03:47;;;;;;;11.95;10.48;;;14.10;99.90;;;;;;5074239;28;20025;-69
2023/09/16 05:06:12;;;;;;;14.82;10.90;;;14.00;99.90;;;;;;5074363;28;20039;-74
2023/09/16 05:08:38;;;;;;;20.75;12.25;;;14.00;99.90;;;;;;5073544;28;20024;-69
2023/09/16 05:11:04;;;;;;;15.00;11.85;;;14.10;99.90;;;;;;5073964;28;20117;-69
2023/09/16 05:13:29;;;;;;;17.48;12.32;;;14.10;99.90;;;;;;5074429;28;20035;-69
2023/09/16 05:15:55;;;;;;;19.60;12.85;;;14.10;99.90;;;;;;5073923;28;20037;-69
2023/09/16 05:18:20;;;;;;;17.73;13.85;;;14.20;99.90;;;;;;5073857;28;20078;-70
2023/09/16 05:20:49;;;;;;;16.95;14.18;;;14.30;99.90;;;;;;5073893;28;20382;-69
2023/09/16 05:23:16;;;;;;;18.45;14.80;;;14.40;99.90;;;;;;5073268;28;20041;-69
2023/09/16 05:25:49;;;;;;;18.40;14.10;;;14.50;99.90;;;;;;5074136;28;20459;-69
2023/09/16 05:28:15;;;;;;;19.02;14.27;;;14.70;99.90;;;;;;5073671;28;20020;-69
2023/09/16 05:30:42;;;;;;;20.27;13.70;;;14.80;99.90;;;;;;5073187;28;20032;-69
2023/09/16 05:33:10;;;;;;;16.80;12.52;;;15.00;99.90;;;;;;5073814;28;20383;-69
2023/09/16 05:35:36;;;;;;;18.05;12.75;;;15.00;99.90;;;;;;5074154;28;20029;-69
2023/09/16 05:38:02;;;;;;;15.68;12.43;;;15.20;99.90;;;;;;5073697;28;20382;-69
2023/09/16 05:40:27;;;;;;;15.88;11.65;;;15.30;99.90;;;;;;5073667;28;20033;-70
2023/09/16 05:42:53;;;;;;;16.30;11.35;;;15.40;99.90;;;;;;5073041;28;20063;-69
2023/09/16 05:45:19;;;;;;;16.25;12.30;;;15.50;99.90;;;;;;5073439;28;20025;-69
2023/09/16 05:47:45;;;;;;;13.70;10.98;;;15.60;99.90;;;;;;5073650;28;20426;-69
2023/09/16 05:50:12;;;;;;;13.90;11.50;;;15.80;99.90;;;;;;5073627;28;20039;-69
2023/09/16 05:52:38;;;;;;;14.18;11.15;;;15.90;99.90;;;;;;5073549;28;20020;-69
2023/09/16 05:55:04;;;;;;;17.45;11.43;;;16.10;99.90;;;;;;5073820;28;20051;-77
2023/09/16 05:57:30;;;;;;;15.98;11.82;;;16.30;99.90;;;;;;5073582;28;20027;-69
2023/09/16 05:59:55;;;;;;;15.13;11.25;;;16.40;99.90;;;;;;5073757;28;20028;-70
2023/09/16 06:02:21;;;;;;;13.05;9.68;;;16.60;99.90;;;;;;5077739;28;20128;-70
2023/09/16 06:04:46;;;;;;;12.68;9.52;;;16.80;99.90;;;;;;5076935;28;20115;-70
2023/09/16 06:07:12;;;;;;;11.45;10.23;;;16.90;99.90;;;;;;5077510;28;20058;-70
2023/09/16 06:09:38;;;;;;;13.23;10.65;;;16.90;99.90;;;;;;5076368;28;20446;-70
2023/09/16 06:12:04;;;;;;;13.73;10.13;;;17.00;99.90;;;;;;5076721;28;20028;-70
2023/09/16 06:14:30;;;;;;;15.80;10.52;;;17.20;99.90;;;;;;5076940;28;20142;-70
2023/09/16 06:16:56;;;;;;;12.07;9.07;;;17.20;99.90;;;;;;5076848;28;20024;-70
2023/09/16 06:19:21;;;;;;;11.73;9.55;;;17.40;99.90;;;;;;5076630;28;20025;-70
2023/09/16 06:21:48;;;;;;;12.85;9.18;;;17.60;99.90;;;;;;5076270;28;20094;-70
2023/09/16 06:24:14;;;;;;;13.68;8.98;;;17.70;99.90;;;;;;5076742;28;20032;-70
2023/09/16 06:26:39;;;;;;;10.85;8.07;;;17.90;99.90;;;;;;5076414;28;20039;-70
2023/09/16 06:29:04;;;;;;;9.82;8.10;;;19.00;95.00;;;;;;5077334;28;20024;-70
2023/09/16 06:31:30;;;;;;;9.05;7.35;;;20.20;1.00;;;;;;5077138;28;20033;-70
2023/09/16 06:33:55;;;;;;;11.13;7.45;;;21.40;99.90;;;;;;5077125;28;20028;-71
2023/09/16 06:36:21;;;;;;;8.55;6.53;;;21.80;99.90;;;;;;5076830;28;20029;-71
2023/09/16 06:38:47;;;;;;;7.65;6.90;;;22.70;1.00;;;;;;5076409;28;20020;-71
2023/09/16 06:41:12;;;;;;;9.15;6.53;;;23.90;1.00;;;;;;5076762;28;20111;-72
2023/09/16 06:43:38;;;;;;;7.97;6.35;;;23.60;99.90;;;;;;5076263;28;20078;-71
2023/09/16 06:46:03;;;;;;;9.32;6.15;;;23.40;99.90;;;;;;5076117;28;20069;-71
2023/09/16 06:48:29;;;;;;;9.23;6.50;;;23.70;99.90;;;;;;5076450;28;20021;-71
2023/09/16 06:50:54;;;;;;;6.82;5.97;;;24.00;99.90;;;;;;5076246;28;20081;-71
2023/09/16 06:53:20;;;;;;;12.35;6.50;;;;;;;;;;5076920;28;20021;-71
2023/09/16 06:55:47;;;;;;;8.38;6.38;;;24.20;1.00;;;;;;5076442;28;20457;-71
2023/09/16 06:58:13;;;;;;;9.05;6.70;;;24.90;99.90;;;;;;5075861;28;20021;-71
2023/09/16 07:00:39;;;;;;;8.88;5.88;;;24.60;99.90;;;;;;5075739;28;20032;-71
2023/09/16 07:03:05;;;;;;;6.55;5.47;;;24.90;99.90;;;;;;5076550;28;20036;-71
2023/09/16 07:05:31;;;;;;;7.60;5.85;;;25.40;1.00;;;;;;5076758;28;20090;-72
2023/09/16 07:07:58;;;;;;;6.72;5.95;;;;;;;;;;5075945;28;20059;-69
2023/09/16 07:10:24;;;;;;;6.20;5.60;;;25.90;99.90;;;;;;5076257;28;20027;-70
2023/09/16 07:12:50;;;;;;;10.20;5.95;;;26.30;99.90;;;;;;5075412;28;20070;-70
2023/09/16 07:15:16;;;;;;;7.65;5.85;;;;;;;;;;5076451;28;20028;-72
2023/09/16 07:17:41;;;;;;;6.15;5.57;;;26.40;99.90;;;;;;5075567;28;20028;-72
2023/09/16 07:20:07;;;;;;;6.88;6.18;;;26.60;99.90;;;;;;5075475;28;20120;-72
2023/09/16 07:22:33;;;;;;;6.47;5.88;;;26.20;99.90;;;;;;5075178;28;20052;-73
2023/09/16 07:24:58;;;;;;;10.95;6.28;;;26.50;99.90;;;;;;5074955;28;20029;-72
2023/09/16 07:27:24;;;;;;;7.15;6.10;;;27.20;99.90;;;;;;5075837;28;20028;-72
2023/09/16 07:29:49;;;;;;;6.70;5.88;;;26.90;82.30;;;;;;5076171;28;20020;-72
2023/09/16 07:32:15;;;;;;;11.63;6.88;;;26.80;99.90;;;;;;5075548;28;20111;-72
2023/09/16 07:34:40;;;;;;;6.78;6.18;;;26.00;99.90;;;;;;5075810;28;20059;-72
2023/09/16 07:37:06;;;;;;;7.85;6.15;;;26.40;99.90;;;;;;5076095;28;20028;-72
2023/09/16 07:39:31;;;;;;;7.65;6.13;;;27.20;99.90;;;;;;5075791;28;20040;-73
2023/09/16 07:41:57;;;;;;;7.40;5.82;;;27.10;13.50;;;;;;5075309;28;20402;-73
2023/09/16 07:44:23;;;;;;;6.57;5.85;;;26.50;99.90;;;;;;5075447;28;20025;-73
2023/09/16 07:46:49;;;;;;;10.13;6.60;;;26.50;99.90;;;;;;5075463;28;20023;-73
2023/09/16 07:49:15;;;;;;;8.73;5.82;;;27.10;99.90;;;;;;5075485;28;20032;-73
2023/09/16 07:51:42;;;;;;;7.82;5.70;;;27.60;1.00;;;;;;5075496;28;20021;-72
2023/09/16 07:54:08;;;;;;;8.57;5.72;;;27.40;1.00;;;;;;5075792;28;20523;-72
2023/09/16 07:56:34;;;;;;;10.90;5.53;;;28.20;1.00;;;;;;5075662;28;20024;-70
2023/09/16 07:58:59;;;;;;;6.28;5.50;;;27.40;1.00;;;;;;5075570;28;20479;-70
2023/09/16 08:01:25;;;;;;;6.88;4.70;;;27.20;1.00;;;;;;5075333;28;20028;-70
2023/09/16 08:03:50;;;;;;;5.15;4.75;;;27.80;87.70;;;;;;5075235;28;20360;-71
2023/09/16 08:06:16;;;;;;;5.55;4.95;;;29.20;99.90;;;;;;5074774;28;20021;-74
2023/09/16 08:08:42;;;;;;;5.07;4.45;;;29.60;99.90;;;;;;5074690;28;20078;-71
2023/09/16 08:11:07;;;;;;;5.20;4.70;;;29.40;99.90;;;;;;5074573;28;20529;-71
2023/09/16 08:13:33;;;;;;;6.35;5.50;;;29.60;99.90;;;;;;5075221;28;20033;-71
2023/09/16 08:15:59;;;;;;;5.30;4.80;;;29.20;99.90;;;;;;5074514;28;20021;-71
2023/09/16 08:18:24;;;;;;;5.70;5.10;;;29.00;99.90;;;;;;5074811;28;20037;-72
2023/09/16 08:20:50;;;;;;;4.75;4.07;;;28.60;99.90;;;;;;5074350;28;20490;-71
2023/09/16 08:23:16;;;;;;;4.85;4.32;;;28.70;99.90;;;;;;5073279;28;20036;-72
2023/09/16 08:25:41;;;;;;;5.00;4.50;;;29.00;99.90;;;;;;5074317;28;20021;-72
2023/09/16 08:28:07;;;;;;;6.28;4.53;;;28.50;99.90;;;;;;5074594;28;20028;-72
2023/09/16 08:30:32;;;;;;;5.25;4.47;;;28.80;99.90;;;;;;5074517;28;20016;-72
2023/09/16 08:32:58;;;;;;;5.32;4.82;;;29.00;99.90;;;;;;5073618;28;20032;-72
2023/09/16 08:35:25;;;;;;;6.63;4.25;;;28.70;99.90;;;;;;5074410;28;20107;-72
2023/09/16 08:37:51;;;;;;;4.68;4.10;;;28.90;99.90;;;;;;5074779;28;20377;-72
2023/09/16 08:40:17;;;;;;;4.30;3.90;;;29.70;99.90;;;;;;5074759;28;20031;-72
2023/09/16 08:42:51;;;;;;;6.15;4.13;;;30.70;99.90;;;;;;5074571;28;20025;-72
2023/09/16 08:45:23;;;;;;;4.05;3.75;;;29.80;99.90;;;;;;5074353;28;20368;-72
2023/09/16 08:47:55;;;;;;;7.95;4.63;;;29.90;99.90;;;;;;5074563;28;20048;-72
2023/09/16 08:50:22;;;;;;;3.80;3.50;;;29.60;99.90;;;;;;5074265;28;20391;-72
2023/09/16 08:52:53;;;;;;;6.88;5.28;;;30.00;99.90;;;;;;5074393;28;20047;-72
2023/09/16 08:55:19;;;;;;;8.38;4.32;;;30.00;99.90;;;;;;5073847;28;20056;-72
2023/09/16 08:57:50;;;;;;;4.35;3.75;;;30.00;99.90;;;;;;5074170;28;20539;-73
2023/09/16 09:00:16;;;;;;;6.75;3.90;;;29.90;99.90;;;;;;5074048;28;20024;-75
2023/09/16 09:02:43;;;;;;;4.18;3.83;;;29.70;99.90;;;;;;5074110;28;20374;-73
2023/09/16 09:05:11;;;;;;;4.25;3.90;;;30.10;99.90;;;;;;5073951;28;20487;-72
2023/09/16 09:07:39;;;;;;;5.68;3.67;;;30.40;99.90;;;;;;5073668;28;20478;-73
2023/09/16 09:10:06;;;;;;;5.32;3.67;;;30.70;99.90;;;;;;5073657;28;20107;-72
2023/09/16 09:12:35;;;;;;;5.55;3.65;;;30.10;99.90;;;;;;5074267;28;20336;-73
2023/09/16 09:15:04;;;;;;;5.68;3.78;;;29.90;99.90;;;;;;5073865;28;20052;-72
2023/09/16 09:17:37;;;;;;;5.63;3.78;;;29.90;99.90;;;;;;5074192;28;20021;-72
2023/09/16 09:20:07;;;;;;;3.95;3.55;;;30.10;99.90;;;;;;5073785;28;20411;-72
2023/09/16 09:22:36;;;;;;;4.88;4.30;;;29.70;99.90;;;;;;5073651;28;20490;-72
2023/09/16 09:25:01;;;;;;;4.15;3.75;;;29.80;99.90;;;;;;5073054;28;20029;-72
2023/09/16 09:27:28;;;;;;;5.15;4.28;;;29.60;99.90;;;;;;5073877;28;20119;-72
2023/09/16 09:29:54;;;;;;;4.28;3.92;;;29.30;99.90;;;;;;5073368;28;20024;-72
2023/09/16 09:32:21;;;;;;;5.18;4.00;;;29.10;99.90;;;;;;5072819;28;20035;-72
2023/09/16 09:34:46;;;;;;;4.25;3.85;;;29.30;99.90;;;;;;5073565;28;20036;-73
2023/09/16 09:37:17;;;;;;;5.82;3.90;;;29.90;99.90;;;;;;5074068;28;20067;-73
2023/09/16 09:39:45;;;;;;;7.05;4.20;;;30.40;99.90;;;;;;5073143;28;20060;-72
2023/09/16 09:42:18;;;;;;;6.55;3.83;;;30.40;99.90;;;;;;5073260;28;20173;-74
2023/09/16 09:44:43;;;;;;;6.60;4.03;;;30.80;99.90;;;;;;5073264;28;20025;-72
2023/09/16 09:47:12;;;;;;;7.88;4.68;;;30.70;99.90;;;;;;5073563;28;20017;-72
2023/09/16 09:49:38;;;;;;;5.40;3.72;;;29.70;99.90;;;;;;5073228;28;20016;-73
2023/09/16 09:52:05;;;;;;;4.93;4.00;;;29.70;99.90;;;;;;5073460;28;20482;-73
2023/09/16 09:54:31;;;;;;;7.57;4.40;;;30.30;99.90;;;;;;5073857;28;20028;-72
2023/09/16 09:56:57;;;;;;;6.82;4.00;;;30.70;99.90;;;;;;5073093;28;20029;-73
2023/09/16 09:59:23;;;;;;;5.75;3.75;;;31.00;99.90;;;;;;5073152;28;20470;-72
2023/09/16 10:01:49;;;;;;;4.05;3.63;;;31.40;99.90;;;;;;5073115;28;20027;-72
2023/09/16 10:04:15;;;;;;;5.20;4.10;;;30.80;99.90;;;;;;5073338;28;20040;-72
2023/09/16 10:06:41;;;;;;;5.25;3.90;;;31.20;99.90;;;;;;5073353;28;20020;-72
2023/09/16 10:09:06;;;;;;;4.70;3.72;;;30.70;99.90;;;;;;5073440;28;20374;-71
2023/09/16 10:11:33;;;;;;;4.80;4.22;;;31.10;99.90;;;;;;5072993;28;20029;-71
2023/09/16 10:13:59;;;;;;;5.30;3.90;;;30.80;99.90;;;;;;5073773;28;20024;-72
2023/09/16 10:16:25;;;;;;;4.50;4.10;;;30.20;99.90;;;;;;5073298;28;20020;-71
2023/09/16 10:18:51;;;;;;;5.93;4.18;;;29.60;99.90;;;;;;5073636;28;20035;-71
2023/09/16 10:21:18;;;;;;;4.40;4.00;;;30.00;99.90;;;;;;5073261;28;20033;-72
2023/09/16 10:23:46;;;;;;;4.85;4.25;;;30.60;99.90;;;;;;5072385;28;20490;-71
2023/09/16 10:26:11;;;;;;;5.97;4.78;;;30.80;99.90;;;;;;5072916;28;20016;-71
2023/09/16 10:28:43;;;;;;;7.65;5.13;;;30.90;99.90;;;;;;5073096;28;20047;-72
2023/09/16 10:31:09;;;;;;;5.22;4.72;;;31.30;99.90;;;;;;5073626;28;20046;-72
2023/09/16 10:33:36;;;;;;;4.60;4.20;;;31.20;99.90;;;;;;5073098;28;20024;-71
2023/09/16 10:36:01;;;;;;;4.60;4.20;;;30.30;99.90;;;;;;5073323;28;20033;-71
2023/09/16 10:38:27;;;;;;;6.07;5.00;;;29.00;99.90;;;;;;5073430;28;20033;-71
2023/09/16 10:40:53;;;;;;;4.88;4.30;;;29.10;99.90;;;;;;5073137;28;20112;-71
2023/09/16 10:43:19;;;;;;;4.85;4.43;;;28.70;99.90;;;;;;5072104;28;20494;-71
2023/09/16 10:45:45;;;;;;;8.68;4.43;;;28.90;99.90;;;;;;5073132;28;20028;-73
2023/09/16 10:48:11;;;;;;;8.13;5.30;;;28.80;99.90;;;;;;5075329;28;20081;-71
2023/09/16 10:50:39;;;;;;;6.53;4.38;;;28.80;99.90;;;;;;5076081;28;20529;-71
2023/09/16 10:53:10;;;;;;;6.25;4.07;;;29.60;99.90;;;;;;5076883;28;20097;-72
2023/09/16 10:56:15;;;;;;;4.72;4.30;;;30.50;99.90;;;;;;5075674;28;20021;-72
2023/09/16 10:58:46;;;;;;;4.97;4.25;;;29.60;99.90;;;;;;5075488;28;20028;-71
2023/09/16 11:01:32;;;;;;;5.50;5.00;;;29.10;99.90;;;;;;5076484;28;20462;-72
2023/09/16 11:04:07;;;;;;;6.35;4.72;;;29.20;99.90;;;;;;5075906;28;20051;-71
2023/09/16 11:06:32;;;;;;;6.53;4.38;;;29.10;99.90;;;;;;5075842;28;20021;-72
2023/09/16 11:08:58;;;;;;;4.47;4.07;;;29.30;99.90;;;;;;5076344;28;20032;-71
2023/09/16 11:11:24;;;;;;;5.07;4.50;;;29.80;99.90;;;;;;5075687;28;20082;-76
2023/09/16 11:13:50;;;;;;;6.00;4.90;;;29.50;99.90;;;;;;5075389;28;20039;-71
2023/09/16 11:16:16;;;;;;;6.82;4.28;;;29.20;99.90;;;;;;5076040;28;20042;-71
2023/09/16 11:18:43;;;;;;;7.45;4.70;;;29.20;99.90;;;;;;5076144;28;20033;-71
2023/09/16 11:21:11;;;;;;;7.75;4.85;;;29.30;99.90;;;;;;5075480;28;20032;-71
2023/09/16 11:23:37;;;;;;;7.32;5.10;;;29.10;99.90;;;;;;5075121;28;20110;-71
2023/09/16 11:26:04;;;;;;;5.68;5.13;;;29.00;99.90;;;;;;5075666;28;20032;-71
2023/09/16 11:28:30;;;;;;;6.90;5.00;;;28.90;99.90;;;;;;5076180;28;20020;-72
2023/09/16 11:30:57;;;;;;;6.53;5.93;;;28.50;99.90;;;;;;5076207;28;20047;-71
2023/09/16 11:33:38;;;;;;;8.48;5.40;;;28.70;99.90;;;;;;5075822;28;20028;-71
2023/09/16 11:36:19;;;;;;;7.97;5.72;;;28.30;1.00;;;;;;5074826;28;20028;-71
2023/09/16 11:41:46;;;;;;;5.95;5.38;;;28.80;99.90;;;;;;5111833;27;20865;-72
2023/09/16 11:44:12;;;;;;;8.02;6.05;;;28.90;1.00;;;;;;5111632;28;20027;-72
2023/09/16 11:46:38;;;;;;;6.93;6.20;;;28.80;99.90;;;;;;5111711;28;20031;-72
2023/09/16 11:49:05;;;;;;;6.97;6.18;;;28.00;99.90;;;;;;5111954;28;20073;-71
2023/09/16 11:51:32;;;;;;;6.63;6.03;;;27.60;1.00;;;;;;5111533;28;20020;-72
2023/09/16 11:53:57;;;;;;;9.70;6.82;;;27.70;1.00;;;;;;5111523;28;20144;-72
2023/09/16 11:56:26;;;;;;;9.68;6.60;;;27.90;1.00;;;;;;5111535;28;20023;-72
2023/09/16 11:58:54;;;;;;;7.32;6.50;;;27.90;1.00;;;;;;5111517;28;20027;-72
2023/09/16 12:01:22;;;;;;;6.25;5.65;;;28.30;1.00;;;;;;5110635;28;20027;-72
2023/09/16 12:03:49;;;;;;;9.45;6.90;;;28.40;99.90;;;;;;5111408;28;20028;-72
2023/09/16 12:06:17;;;;;;;6.95;6.18;;;28.10;1.00;;;;;;5111105;28;20024;-72
2023/09/16 12:08:44;;;;;;;7.57;6.15;;;28.30;37.20;;;;;;5111667;28;20471;-72
2023/09/16 12:11:10;;;;;;;7.38;6.15;;;28.20;47.70;;;;;;5111264;28;20157;-72
2023/09/16 12:13:35;;;;;;;6.47;5.80;;;28.10;99.90;;;;;;5111248;28;20092;-72
2023/09/16 12:16:01;;;;;;;6.43;5.70;;;28.00;99.90;;;;;;5110889;28;20035;-72
2023/09/16 12:18:26;;;;;;;7.75;6.30;;;28.10;99.90;;;;;;5111362;28;20110;-72
2023/09/16 12:20:52;;;;;;;6.88;6.18;;;27.90;99.90;;;;;;5110890;28;20030;-71
2023/09/16 12:23:18;;;;;;;10.45;6.13;;;27.90;99.90;;;;;;5111004;28;20487;-71
2023/09/16 12:25:44;;;;;;;10.27;7.85;;;28.00;99.90;;;;;;5111244;28;20030;-72
2023/09/16 12:28:11;;;;;;;7.35;6.70;;;28.20;99.90;;;;;;5111238;28;20020;-71
2023/09/16 12:30:42;;;;;;;9.18;7.53;;;28.00;1.00;;;;;;5110547;28;20031;-72
2023/09/16 12:33:08;;;;;;;9.75;6.88;;;27.90;99.90;;;;;;5110838;28;20088;-72
2023/09/16 12:35:38;;;;;;;7.10;6.40;;;27.80;99.90;;;;;;5110839;28;20032;-72
2023/09/16 12:38:04;;;;;;;6.80;5.95;;;27.60;1.00;;;;;;5110853;28;20024;-72
2023/09/16 12:40:31;;;;;;;7.10;5.50;;;27.70;99.90;;;;;;5110056;28;20059;-72